Time;durP1;ratioP1;P1;durP2;ratioP2;P2;SDS_P1;SDS_P2;PMS_P1;PMS_P2;Temp;Humidity;BMP_temperature;BMP_pressure;BME280_temperature;BME280_humidity;BME280_pressure;Samples;Min_cycle;Max_cycle;Signal;HPM_P1;HPM_P2
2022/11/12 00:01:36;;;;;;;18.12;8.23;;;;;;;;;;1705604;83;21834;-58
2022/11/12 00:04:22;;;;;;;16.07;8.60;;;;;;;;;;1705504;83;21052;-60
2022/11/12 00:07:07;;;;;;;15.50;7.92;;;;;;;;;;1688175;83;21096;-59
2022/11/12 00:09:52;;;;;;;15.98;8.45;;;;;;;;;;1679045;83;21040;-59
2022/11/12 00:12:37;;;;;;;13.88;8.55;;;;;;;;;;1686787;83;21047;-59
2022/11/12 00:15:23;;;;;;;14.20;8.65;;;;;;;;;;1700435;82;21052;-59
2022/11/12 00:18:08;;;;;;;18.90;10.25;;;;;;;;;;1673524;84;21031;-58
2022/11/12 00:20:53;;;;;;;16.00;8.95;;;;;;;;;;1703320;83;21058;-59
2022/11/12 00:23:38;;;;;;;17.55;10.15;;;;;;;;;;1670124;85;21069;-59
2022/11/12 00:26:23;;;;;;;20.88;11.90;;;;;;;;;;1696993;83;21029;-59
2022/11/12 00:29:08;;;;;;;17.52;10.45;;;;;;;;;;1707109;83;21545;-60
2022/11/12 00:31:53;;;;;;;22.05;11.05;;;;;;;;;;1705220;83;21385;-60
2022/11/12 00:34:39;;;;;;;19.62;10.65;;;;;;;;;;1703018;83;21112;-59
2022/11/12 00:37:24;;;;;;;17.25;10.38;;;;;;;;;;1702359;83;21091;-62
2022/11/12 00:40:10;;;;;;;20.15;10.43;;;;;;;;;;1705403;83;21392;-57
2022/11/12 00:42:55;;;;;;;16.97;9.78;;;;;;;;;;1706162;83;21190;-58
2022/11/12 00:45:41;;;;;;;17.77;10.38;;;;;;;;;;1706916;82;21107;-58
2022/11/12 00:48:26;;;;;;;20.82;10.48;;;;;;;;;;1706765;82;21650;-60
2022/11/12 00:51:11;;;;;;;17.62;9.95;;;;;;;;;;1712599;83;21059;-57
2022/11/12 00:53:55;;;;;;;26.20;11.68;;;;;;;;;;1702663;84;21111;-57
2022/11/12 00:56:40;;;;;;;24.00;11.80;;;;;;;;;;1711455;83;21069;-57
2022/11/12 00:59:24;;;;;;;22.05;11.08;;;;;;;;;;1710924;84;21099;-59
2022/11/12 01:02:09;;;;;;;18.50;10.48;;;;;;;;;;1713352;84;21072;-59
2022/11/12 01:04:54;;;;;;;20.05;11.33;;;;;;;;;;1713358;84;21072;-58
2022/11/12 01:07:40;;;;;;;21.42;10.48;;;;;;;;;;1713025;83;21484;-58
2022/11/12 01:10:25;;;;;;;18.50;10.32;;;;;;;;;;1710344;84;21083;-58
2022/11/12 01:13:10;;;;;;;19.25;10.43;;;;;;;;;;1704401;84;21181;-58
2022/11/12 01:15:54;;;;;;;17.00;9.83;;;;;;;;;;1702951;83;21032;-58
2022/11/12 01:18:41;;;;;;;22.02;10.50;;;;;;;;;;1702155;82;21098;-58
2022/11/12 01:21:27;;;;;;;17.17;9.80;;;;;;;;;;1703477;82;21550;-59
2022/11/12 01:24:12;;;;;;;19.35;9.65;;;;;;;;;;1705500;83;21564;-58
2022/11/12 01:26:56;;;;;;;16.35;9.25;;;;;;;;;;1698140;83;21112;-60
2022/11/12 01:29:41;;;;;;;15.68;9.68;;;;;;;;;;1688471;84;21067;-58
2022/11/12 01:32:26;;;;;;;13.38;8.73;;;;;;;;;;1684097;84;21186;-58
2022/11/12 01:35:12;;;;;;;14.68;9.03;;;;;;;;;;1666708;84;21045;-59
2022/11/12 01:37:56;;;;;;;14.45;8.78;;;;;;;;;;1657700;84;21032;-58
2022/11/12 01:40:41;;;;;;;17.17;9.35;;;;;;;;;;1655586;84;21028;-59
2022/11/12 01:43:26;;;;;;;14.00;8.28;;;;;;;;;;1683989;83;21058;-58
2022/11/12 01:46:12;;;;;;;13.55;8.13;;;;;;;;;;1683079;83;21266;-59
2022/11/12 01:48:58;;;;;;;12.43;7.28;;;;;;;;;;1679047;84;21031;-59
2022/11/12 01:51:45;;;;;;;10.13;6.90;;;;;;;;;;1665204;85;22210;-58
2022/11/12 01:54:30;;;;;;;17.00;8.25;;;;;;;;;;1692763;83;21078;-58
2022/11/12 01:57:16;;;;;;;15.78;7.87;;;;;;;;;;1693043;83;21594;-57
2022/11/12 02:00:03;;;;;;;12.03;7.05;;;;;;;;;;1693714;83;21072;-58
2022/11/12 02:05:27;;;;;;;17.15;8.00;;;;;;;;;;1735622;81;21079;-58
2022/11/12 06:25:36;;;;;;;18.48;10.38;;;;;;;;;;1765570;80;28227;-60
2022/11/12 06:28:21;;;;;;;17.20;10.68;;;;;;;;;;1747790;81;21562;-61
2022/11/12 06:31:06;;;;;;;20.48;11.25;;;;;;;;;;1747086;80;21578;-59
2022/11/12 06:33:52;;;;;;;17.90;11.35;;;;;;;;;;1748893;80;21055;-58
2022/11/12 06:36:37;;;;;;;22.10;12.13;;;;;;;;;;1746670;81;21075;-60
2022/11/12 06:39:21;;;;;;;21.93;12.25;;;;;;;;;;1779678;79;21059;-59
2022/11/12 06:42:06;;;;;;;23.12;12.60;;;;;;;;;;1749006;81;21056;-59
2022/11/12 06:44:51;;;;;;;22.93;11.75;;;;;;;;;;1778827;78;21591;-61
2022/11/12 06:47:35;;;;;;;21.17;11.40;;;;;;;;;;1741993;81;21693;-58
2022/11/12 06:50:20;;;;;;;21.95;13.62;;;;;;;;;;1770316;79;21359;-59
2022/11/12 06:53:04;;;;;;;21.82;13.28;;;;;;;;;;1740684;81;21044;-58
2022/11/12 06:55:49;;;;;;;18.60;9.83;;;;;;;;;;1780437;79;21028;-59
2022/11/12 06:58:34;;;;;;;18.60;10.70;;;;;;;;;;1778245;79;21593;-58
2022/11/12 07:01:19;;;;;;;20.15;11.05;;;;;;;;;;1774358;79;21082;-59
2022/11/12 07:04:03;;;;;;;21.60;11.25;;;;;;;;;;1767449;79;20984;-60
2022/11/12 07:06:48;;;;;;;18.60;11.40;;;;;;;;;;1772996;80;21063;-59
2022/11/12 07:09:32;;;;;;;18.42;9.53;;;;;;;;;;1769033;79;21086;-59
2022/11/12 07:12:17;;;;;;;15.00;8.83;;;;;;;;;;1766536;80;21106;-59
2022/11/12 07:15:02;;;;;;;19.20;11.68;;;;;;;;;;1767051;80;21183;-59
2022/11/12 07:17:47;;;;;;;20.20;12.13;;;;;;;;;;1768723;79;21063;-59
2022/11/12 07:20:33;;;;;;;22.82;12.88;;;;;;;;;;1781919;79;21039;-59
2022/11/12 07:23:19;;;;;;;20.48;10.68;;;;;;;;;;1763937;80;21013;-59
2022/11/12 07:26:05;;;;;;;17.20;10.13;;;;;;;;;;1774815;80;21007;-59
2022/11/12 07:28:54;;;;;;;17.98;10.78;;;;;;;;;;1767851;80;21089;-60
2022/11/12 07:31:39;;;;;;;18.32;11.33;;;;;;;;;;1770124;79;21066;-59
2022/11/12 07:34:23;;;;;;;19.95;10.80;;;;;;;;;;1768092;80;21000;-59
2022/11/12 07:37:08;;;;;;;20.32;10.30;;;;;;;;;;1788027;79;21538;-58
2022/11/12 07:39:52;;;;;;;13.98;9.33;;;;;;;;;;1779229;79;21035;-59
2022/11/12 07:42:37;;;;;;;16.80;10.20;;;;;;;;;;1784482;80;21090;-59
2022/11/12 07:45:22;;;;;;;19.65;9.85;;;;;;;;;;1771116;80;21035;-59
2022/11/12 07:48:06;;;;;;;14.95;9.30;;;;;;;;;;1760857;81;21043;-60
2022/11/12 07:50:51;;;;;;;17.25;9.80;;;;;;;;;;1776400;80;21023;-59
2022/11/12 07:53:37;;;;;;;16.93;10.05;;;;;;;;;;1774396;80;21007;-58
2022/11/12 07:56:23;;;;;;;14.87;9.53;;;;;;;;;;1787798;80;20985;-58
2022/11/12 07:59:07;;;;;;;18.05;10.68;;;;;;;;;;1780251;80;21107;-58
2022/11/12 08:01:52;;;;;;;17.10;11.38;;;;;;;;;;1779795;79;21047;-58
2022/11/12 08:04:37;;;;;;;15.15;9.45;;;;;;;;;;1786310;79;21003;-58
2022/11/12 08:07:21;;;;;;;16.42;9.58;;;;;;;;;;1777939;80;21508;-59
2022/11/12 08:10:06;;;;;;;21.60;10.18;;;;;;;;;;1777187;80;21003;-57
2022/11/12 08:12:53;;;;;;;15.83;8.98;;;;;;;;;;1771978;79;21086;-57
2022/11/12 08:15:38;;;;;;;14.53;9.30;;;;;;;;;;1775069;79;21388;-59
2022/11/12 08:18:23;;;;;;;15.85;9.60;;;;;;;;;;1775615;79;21043;-60
2022/11/12 08:21:09;;;;;;;15.53;9.65;;;;;;;;;;1769262;79;21047;-59
2022/11/12 08:23:54;;;;;;;16.62;9.35;;;;;;;;;;1770220;79;21102;-59
2022/11/12 08:26:40;;;;;;;14.65;8.48;;;;;;;;;;1773592;79;21169;-60
2022/11/12 08:29:25;;;;;;;15.93;9.40;;;;;;;;;;1769417;79;21019;-59
2022/11/12 08:32:11;;;;;;;19.30;10.10;;;;;;;;;;1771740;79;21051;-59
2022/11/12 08:34:55;;;;;;;15.63;9.58;;;;;;;;;;1779376;79;21126;-59
2022/11/12 08:37:41;;;;;;;15.85;9.45;;;;;;;;;;1781168;79;21042;-59
2022/11/12 08:40:26;;;;;;;16.57;9.65;;;;;;;;;;1784820;79;21070;-59
2022/11/12 08:43:11;;;;;;;20.32;10.05;;;;;;;;;;1782449;79;21025;-59
2022/11/12 08:45:58;;;;;;;13.22;8.85;;;;;;;;;;1784350;79;22187;-58
2022/11/12 08:48:44;;;;;;;18.67;10.40;;;;;;;;;;1785675;79;21066;-59
2022/11/12 08:51:29;;;;;;;17.57;9.50;;;;;;;;;;1778640;79;21050;-59
2022/11/12 08:54:13;;;;;;;18.52;10.00;;;;;;;;;;1787493;79;21004;-59
2022/11/12 08:56:57;;;;;;;16.80;9.03;;;;;;;;;;1783221;79;22156;-58
2022/11/12 08:59:42;;;;;;;15.58;9.23;;;;;;;;;;1775650;79;21015;-58
2022/11/12 09:02:27;;;;;;;15.03;9.23;;;;;;;;;;1775816;79;21020;-58
2022/11/12 09:05:11;;;;;;;16.60;9.18;;;;;;;;;;1787775;79;21043;-59
2022/11/12 09:08:00;;;;;;;16.97;9.45;;;;;;;;;;1783457;79;21068;-58
2022/11/12 09:10:45;;;;;;;18.80;10.23;;;;;;;;;;1778365;79;21467;-58
2022/11/12 09:13:29;;;;;;;17.37;9.53;;;;;;;;;;1780717;79;21033;-59
2022/11/12 09:16:14;;;;;;;14.78;8.65;;;;;;;;;;1778977;79;21099;-58
2022/11/12 09:18:58;;;;;;;16.00;8.55;;;;;;;;;;1779393;79;21074;-59
2022/11/12 09:21:43;;;;;;;19.80;10.88;;;;;;;;;;1776753;79;21009;-59
2022/11/12 09:24:28;;;;;;;16.97;9.38;;;;;;;;;;1776815;79;21042;-61
2022/11/12 09:27:14;;;;;;;14.47;9.33;;;;;;;;;;1776263;79;21008;-59
2022/11/12 09:29:59;;;;;;;14.60;9.03;;;;;;;;;;1774901;79;21044;-59
2022/11/12 09:32:43;;;;;;;15.63;9.68;;;;;;;;;;1773582;79;21064;-57
2022/11/12 09:35:29;;;;;;;13.03;8.53;;;;;;;;;;1771249;79;22234;-58
2022/11/12 09:38:14;;;;;;;16.50;9.95;;;;;;;;;;1774824;79;21008;-58
2022/11/12 09:53:47;;;;;;;22.00;13.95;;;;;;;;;;1826192;78;22194;-58
2022/11/12 09:56:32;;;;;;;17.80;11.70;;;;;;;;;;1785937;79;20988;-57
2022/11/12 09:59:16;;;;;;;15.35;9.58;;;;;;;;;;1796473;80;21079;-57
2022/11/12 10:02:02;;;;;;;14.40;9.35;;;;;;;;;;1789562;80;21578;-56
2022/11/12 10:04:53;;;;;;;14.50;7.12;;;;;;;;;;1791667;80;21009;-56
2022/11/12 10:07:40;;;;;;;11.03;8.38;;;;;;;;;;1800745;79;21017;-56
2022/11/12 10:10:30;;;;;;;13.75;8.20;;;;;;;;;;1781314;79;21036;-56
2022/11/12 10:13:25;;;;;;;14.03;8.55;;;;;;;;;;1798747;80;21036;-57
2022/11/12 10:16:42;;;;;;;13.32;8.65;;;;;;;;;;1794922;80;21009;-56
2022/11/12 10:19:29;;;;;;;16.17;7.72;;;;;;;;;;1773202;80;21578;-57
2022/11/12 10:22:16;;;;;;;14.80;8.75;;;;;;;;;;1792525;79;20985;-57
2022/11/12 10:25:02;;;;;;;13.68;8.50;;;;;;;;;;1798934;79;21040;-57
2022/11/12 10:27:48;;;;;;;13.45;8.30;;;;;;;;;;1775454;80;21024;-57
2022/11/12 10:30:33;;;;;;;13.80;8.85;;;;;;;;;;1793870;80;21016;-57
2022/11/12 10:33:17;;;;;;;12.30;7.58;;;;;;;;;;1798463;80;21020;-57
2022/11/12 10:36:06;;;;;;;14.90;8.90;;;;;;;;;;1801341;80;21055;-57
2022/11/12 10:38:52;;;;;;;13.13;7.97;;;;;;;;;;1780168;80;20985;-57
2022/11/12 10:41:38;;;;;;;11.93;7.45;;;;;;;;;;1799909;80;21532;-58
2022/11/12 10:44:24;;;;;;;14.45;8.93;;;;;;;;;;1760331;80;21012;-57
2022/11/12 10:47:11;;;;;;;10.50;6.03;;;;;;;;;;1757858;81;21055;-57
2022/11/12 10:50:00;;;;;;;14.75;7.10;;;;;;;;;;1696787;84;21034;-57
2022/11/12 10:52:53;;;;;;;13.25;8.25;;;;;;;;;;1706638;84;21089;-57
2022/11/12 10:55:40;;;;;;;12.30;8.70;;;;;;;;;;1702966;84;21051;-58
2022/11/12 10:58:25;;;;;;;11.20;7.75;;;;;;;;;;1694464;83;20996;-57
2022/11/12 11:01:13;;;;;;;12.37;8.25;;;;;;;;;;1700210;84;21039;-58
2022/11/12 11:03:58;;;;;;;11.93;7.62;;;;;;;;;;1700047;83;21519;-58
2022/11/12 11:06:42;;;;;;;14.90;7.83;;;;;;;;;;1664438;86;21973;-57
2022/11/12 11:09:28;;;;;;;10.95;7.55;;;;;;;;;;1673612;85;21055;-58
2022/11/12 11:12:23;;;;;;;13.45;7.30;;;;;;;;;;1671324;86;21054;-58
2022/11/12 11:15:18;;;;;;;11.95;7.30;;;;;;;;;;1671441;85;21079;-57
2022/11/12 11:18:06;;;;;;;14.00;8.58;;;;;;;;;;1704237;84;21059;-56
2022/11/12 11:20:52;;;;;;;12.65;7.92;;;;;;;;;;1683190;85;22361;-56
2022/11/12 11:23:40;;;;;;;16.23;8.35;;;;;;;;;;1675092;85;21702;-57
2022/11/12 11:26:39;;;;;;;12.40;7.22;;;;;;;;;;1678039;85;21072;-59
2022/11/12 11:29:42;;;;;;;13.70;7.37;;;;;;;;;;1671960;85;21659;-59
2022/11/12 11:32:45;;;;;;;15.85;8.30;;;;;;;;;;1680127;85;21068;-56
2022/11/12 11:35:32;;;;;;;12.93;7.53;;;;;;;;;;1687823;85;21112;-59
2022/11/12 11:38:21;;;;;;;11.68;7.90;;;;;;;;;;1674770;85;21084;-56
2022/11/12 11:41:14;;;;;;;13.08;7.65;;;;;;;;;;1678248;85;21070;-58
2022/11/12 11:44:03;;;;;;;13.53;8.40;;;;;;;;;;1673596;85;21080;-59
2022/11/12 11:46:56;;;;;;;13.90;7.08;;;;;;;;;;1674397;85;21061;-58
2022/11/12 11:49:59;;;;;;;13.48;8.25;;;;;;;;;;1684405;85;21520;-58
2022/11/12 11:52:52;;;;;;;14.03;8.10;;;;;;;;;;1691961;83;21081;-57
2022/11/12 11:55:53;;;;;;;13.22;8.25;;;;;;;;;;1693040;83;21045;-57
2022/11/12 11:58:39;;;;;;;12.90;7.62;;;;;;;;;;1697006;83;21041;-57
2022/11/12 12:01:44;;;;;;;15.13;8.05;;;;;;;;;;1696627;83;21036;-57
2022/11/12 12:04:36;;;;;;;16.32;7.58;;;;;;;;;;1691981;83;21096;-57
2022/11/12 12:07:29;;;;;;;12.98;7.05;;;;;;;;;;1695243;83;21008;-57
2022/11/12 12:10:32;;;;;;;12.75;7.78;;;;;;;;;;1717817;83;21087;-57
2022/11/12 12:13:22;;;;;;;21.10;18.17;;;;;;;;;;1701042;83;21060;-58
2022/11/12 12:16:27;;;;;;;15.23;11.00;;;;;;;;;;1710784;83;21041;-57
2022/11/12 12:19:19;;;;;;;13.40;7.15;;;;;;;;;;1708771;83;21052;-57
2022/11/12 12:22:07;;;;;;;14.33;7.87;;;;;;;;;;1724461;83;21547;-57
2022/11/12 12:24:54;;;;;;;15.50;8.28;;;;;;;;;;1713237;83;21087;-57
2022/11/12 12:27:40;;;;;;;13.90;7.12;;;;;;;;;;1718307;82;21048;-57
2022/11/12 12:30:25;;;;;;;14.45;8.20;;;;;;;;;;1712385;83;21033;-57
2022/11/12 12:33:14;;;;;;;10.95;7.30;;;;;;;;;;1719678;83;21598;-57
2022/11/12 12:36:01;;;;;;;14.58;7.72;;;;;;;;;;1716583;83;21108;-58
2022/11/12 12:38:47;;;;;;;12.43;7.60;;;;;;;;;;1706292;83;21048;-57
2022/11/12 12:41:34;;;;;;;12.55;7.30;;;;;;;;;;1692735;84;21618;-58
2022/11/12 12:44:18;;;;;;;12.98;7.60;;;;;;;;;;1709335;83;22046;-56
2022/11/12 12:47:02;;;;;;;9.65;6.35;;;;;;;;;;1702821;83;21516;-56
2022/11/12 12:49:47;;;;;;;11.68;7.47;;;;;;;;;;1710148;83;21089;-58
2022/11/12 12:52:35;;;;;;;12.80;7.42;;;;;;;;;;1708246;83;21021;-57
2022/11/12 12:55:34;;;;;;;11.40;6.83;;;;;;;;;;1711273;83;21053;-57
2022/11/12 12:58:28;;;;;;;11.28;6.85;;;;;;;;;;1718594;83;21566;-57
2022/11/12 13:01:21;;;;;;;11.30;6.40;;;;;;;;;;1709390;83;21064;-56
2022/11/12 13:04:07;;;;;;;9.98;7.03;;;;;;;;;;1708199;83;21590;-57
2022/11/12 13:06:52;;;;;;;9.65;6.90;;;;;;;;;;1708937;83;21059;-57
2022/11/12 13:09:36;;;;;;;9.90;6.45;;;;;;;;;;1717943;82;21023;-58
2022/11/12 13:12:22;;;;;;;12.13;7.03;;;;;;;;;;1716313;83;21062;-58
2022/11/12 13:15:11;;;;;;;11.50;6.67;;;;;;;;;;1682767;83;21058;-59
2022/11/12 13:17:55;;;;;;;12.00;6.83;;;;;;;;;;1705409;83;21634;-59
2022/11/12 13:20:40;;;;;;;12.75;6.85;;;;;;;;;;1705501;83;21065;-57
2022/11/12 13:24:04;;;;;;;9.68;6.00;;;;;;;;;;1693147;83;21038;-57
2022/11/12 13:26:44;;;;;;;12.33;6.78;;;;;;;;;;1700219;83;21060;-58
2022/11/12 13:29:30;;;;;;;12.50;7.17;;;;;;;;;;1705623;83;21587;-58
2022/11/12 13:32:35;;;;;;;13.98;6.55;;;;;;;;;;1699096;83;21568;-58
2022/11/12 13:35:21;;;;;;;10.93;6.62;;;;;;;;;;1696201;83;21020;-57
2022/11/12 13:38:14;;;;;;;12.25;6.17;;;;;;;;;;1714789;83;21060;-57
2022/11/12 13:40:59;;;;;;;12.85;7.85;;;;;;;;;;1715012;83;21072;-57
2022/11/12 13:43:46;;;;;;;12.63;7.33;;;;;;;;;;1703695;83;21079;-57
2022/11/12 13:46:31;;;;;;;10.08;6.42;;;;;;;;;;1696495;83;21052;-57
2022/11/12 13:49:16;;;;;;;11.95;7.55;;;;;;;;;;1703025;83;22099;-57
2022/11/12 13:52:03;;;;;;;16.40;7.65;;;;;;;;;;1706849;83;21089;-56
2022/11/12 13:54:50;;;;;;;11.12;7.03;;;;;;;;;;1703427;83;22137;-57
2022/11/12 13:57:35;;;;;;;10.68;6.87;;;;;;;;;;1713123;83;21025;-56
2022/11/12 14:00:24;;;;;;;13.83;8.05;;;;;;;;;;1727899;81;21554;-56
2022/11/12 14:03:10;;;;;;;13.80;7.40;;;;;;;;;;1729765;81;21550;-59
2022/11/12 14:05:55;;;;;;;14.43;8.78;;;;;;;;;;1708585;83;21032;-56
2022/11/12 14:08:54;;;;;;;13.80;9.00;;;;;;;;;;1721893;83;21108;-57
2022/11/12 14:11:48;;;;;;;14.75;8.08;;;;;;;;;;1712997;83;21071;-57
2022/11/12 14:14:52;;;;;;;16.12;10.30;;;;;;;;;;1708634;83;21551;-57
2022/11/12 14:17:43;;;;;;;16.05;8.95;;;;;;;;;;1722409;83;22106;-57
2022/11/12 14:20:32;;;;;;;17.57;9.37;;;;;;;;;;1705781;83;22377;-57
2022/11/12 14:23:18;;;;;;;15.28;8.43;;;;;;;;;;1700436;83;21052;-58
2022/11/12 14:26:03;;;;;;;16.05;8.13;;;;;;;;;;1719747;81;21067;-58
2022/11/12 14:28:49;;;;;;;11.57;7.42;;;;;;;;;;1697988;83;21116;-58
2022/11/12 14:31:34;;;;;;;13.65;8.30;;;;;;;;;;1700472;83;21104;-58
2022/11/12 14:34:20;;;;;;;15.20;8.70;;;;;;;;;;1700744;83;21093;-57
2022/11/12 14:37:06;;;;;;;14.33;8.25;;;;;;;;;;1718238;81;21051;-58
2022/11/12 14:39:50;;;;;;;15.65;7.92;;;;;;;;;;1723509;81;21047;-58
2022/11/12 14:42:35;;;;;;;16.02;8.33;;;;;;;;;;1697837;83;21213;-57
2022/11/12 14:45:20;;;;;;;16.48;9.20;;;;;;;;;;1715331;83;21552;-58
2022/11/12 14:48:05;;;;;;;11.80;8.00;;;;;;;;;;1703384;83;21113;-58
2022/11/12 14:50:51;;;;;;;12.93;8.53;;;;;;;;;;1675855;83;21108;-58
2022/11/12 14:53:53;;;;;;;12.23;7.37;;;;;;;;;;1673305;83;21044;-59
2022/11/12 14:56:42;;;;;;;11.35;7.10;;;;;;;;;;1691038;83;21044;-57
2022/11/12 14:59:26;;;;;;;9.10;6.40;;;;;;;;;;1690087;83;22189;-57
2022/11/12 15:02:12;;;;;;;13.60;7.12;;;;;;;;;;1693182;83;21230;-57
2022/11/12 15:04:58;;;;;;;16.82;7.97;;;;;;;;;;1691981;83;21040;-56
2022/11/12 15:07:51;;;;;;;11.70;7.08;;;;;;;;;;1690050;83;21064;-57
2022/11/12 15:10:37;;;;;;;10.18;6.53;;;;;;;;;;1721431;81;21562;-57
2022/11/12 15:13:22;;;;;;;10.68;6.58;;;;;;;;;;1717083;81;21024;-58
2022/11/12 15:16:07;;;;;;;11.57;6.58;;;;;;;;;;1687937;83;21055;-57
2022/11/12 15:19:00;;;;;;;10.48;6.28;;;;;;;;;;1690219;83;21084;-57
2022/11/12 15:21:56;;;;;;;12.00;6.45;;;;;;;;;;1689739;83;21067;-57
2022/11/12 15:24:43;;;;;;;11.30;6.62;;;;;;;;;;1690141;83;21080;-57
2022/11/12 15:27:38;;;;;;;8.88;5.75;;;;;;;;;;1689320;83;21698;-57
2022/11/12 15:30:42;;;;;;;13.18;7.12;;;;;;;;;;1717673;81;21205;-58
2022/11/12 15:36:18;;;;;;;9.28;5.37;;;;;;;;;;1709292;80;21107;-57
2022/11/12 15:39:03;;;;;;;10.85;6.20;;;;;;;;;;1704794;82;21027;-58
2022/11/12 15:41:50;;;;;;;9.68;5.87;;;;;;;;;;1691884;82;21039;-58
2022/11/12 15:44:36;;;;;;;8.38;5.33;;;;;;;;;;1711085;82;21082;-57
2022/11/12 15:47:20;;;;;;;9.78;6.58;;;;;;;;;;1696209;83;21137;-57
2022/11/12 15:50:20;;;;;;;8.48;5.47;;;;;;;;;;1700359;83;21101;-58
2022/11/12 15:53:05;;;;;;;8.70;5.85;;;;;;;;;;1698724;83;21063;-58
2022/11/12 15:55:49;;;;;;;11.78;6.30;;;;;;;;;;1697594;83;21058;-57
2022/11/12 15:58:34;;;;;;;10.25;6.47;;;;;;;;;;1673359;83;21040;-58
2022/11/12 16:01:19;;;;;;;11.53;7.35;;;;;;;;;;1706150;83;21464;-58
2022/11/12 16:04:04;;;;;;;11.55;5.95;;;;;;;;;;1690920;83;21464;-59
2022/11/12 16:06:48;;;;;;;8.80;5.55;;;;;;;;;;1689618;83;21553;-58
2022/11/12 16:09:33;;;;;;;9.30;5.67;;;;;;;;;;1700585;83;21009;-58
2022/11/12 16:12:19;;;;;;;8.68;5.45;;;;;;;;;;1690554;84;21121;-57
2022/11/12 16:15:06;;;;;;;9.03;5.90;;;;;;;;;;1684597;84;21546;-58
2022/11/12 16:17:51;;;;;;;10.30;6.80;;;;;;;;;;1695210;84;21103;-57
2022/11/12 16:20:36;;;;;;;10.85;6.08;;;;;;;;;;1695382;83;21523;-58
2022/11/12 16:23:21;;;;;;;9.68;6.22;;;;;;;;;;1693956;84;21114;-57
2022/11/12 16:26:06;;;;;;;11.10;6.58;;;;;;;;;;1692700;84;21422;-57
2022/11/12 16:28:51;;;;;;;13.55;7.05;;;;;;;;;;1693143;83;21111;-57
2022/11/12 16:31:36;;;;;;;15.40;9.95;;;;;;;;;;1694336;84;21084;-57
2022/11/12 16:34:21;;;;;;;10.48;8.15;;;;;;;;;;1691797;84;21106;-58
2022/11/12 16:37:07;;;;;;;18.02;11.60;;;;;;;;;;1673645;83;21071;-58
2022/11/12 16:39:52;;;;;;;12.98;7.08;;;;;;;;;;1678246;85;21131;-58
2022/11/12 16:42:44;;;;;;;9.75;6.20;;;;;;;;;;1677815;84;21021;-56
2022/11/12 16:45:25;;;;;;;12.70;6.55;;;;;;;;;;1680267;84;21076;-57
2022/11/12 16:48:12;;;;;;;12.13;6.50;;;;;;;;;;1680806;84;21012;-56
2022/11/12 16:50:57;;;;;;;9.40;5.92;;;;;;;;;;1670148;85;21075;-57
2022/11/12 16:53:43;;;;;;;10.82;6.00;;;;;;;;;;1648196;87;21128;-56
2022/11/12 16:56:27;;;;;;;11.40;6.37;;;;;;;;;;1669140;85;21068;-58
2022/11/12 16:59:15;;;;;;;10.63;5.85;;;;;;;;;;1662082;85;21043;-57
2022/11/12 17:02:00;;;;;;;10.53;6.12;;;;;;;;;;1673125;84;21087;-59
2022/11/12 17:04:45;;;;;;;11.28;6.78;;;;;;;;;;1690744;84;21085;-57
2022/11/12 17:07:29;;;;;;;13.20;7.35;;;;;;;;;;1686627;84;21129;-59
2022/11/12 17:10:15;;;;;;;10.70;6.65;;;;;;;;;;1681920;84;21111;-59
2022/11/12 17:13:01;;;;;;;8.73;5.75;;;;;;;;;;1680517;84;21048;-58
2022/11/12 17:15:46;;;;;;;9.23;5.58;;;;;;;;;;1696714;84;21044;-58
2022/11/12 17:18:31;;;;;;;13.13;7.30;;;;;;;;;;1688144;84;21096;-58
2022/11/12 17:21:16;;;;;;;11.65;6.40;;;;;;;;;;1690121;84;21084;-57
2022/11/12 17:24:01;;;;;;;11.93;7.22;;;;;;;;;;1653159;85;21074;-61
2022/11/12 17:26:46;;;;;;;10.23;6.37;;;;;;;;;;1678048;84;21082;-57
2022/11/12 17:29:30;;;;;;;12.00;6.85;;;;;;;;;;1699015;84;21020;-57
2022/11/12 17:32:15;;;;;;;9.98;6.22;;;;;;;;;;1675918;84;21114;-57
2022/11/12 17:35:01;;;;;;;11.25;6.05;;;;;;;;;;1686181;84;21124;-58
2022/11/12 17:37:46;;;;;;;11.73;6.72;;;;;;;;;;1674086;85;22107;-58
2022/11/12 17:40:33;;;;;;;10.13;5.87;;;;;;;;;;1656797;85;21073;-57
2022/11/12 17:43:18;;;;;;;9.83;5.65;;;;;;;;;;1685593;84;21075;-57
2022/11/12 17:46:03;;;;;;;11.45;6.58;;;;;;;;;;1688271;84;21148;-58
2022/11/12 17:48:48;;;;;;;9.58;6.25;;;;;;;;;;1679524;84;21121;-58
2022/11/12 17:51:33;;;;;;;12.10;6.70;;;;;;;;;;1692520;84;21607;-58
2022/11/12 17:54:19;;;;;;;9.95;6.33;;;;;;;;;;1678005;84;21028;-58
2022/11/12 17:57:04;;;;;;;9.93;6.80;;;;;;;;;;1683848;84;21537;-57
2022/11/12 17:59:49;;;;;;;9.73;6.30;;;;;;;;;;1685325;84;21079;-57
2022/11/12 18:02:34;;;;;;;11.83;6.87;;;;;;;;;;1686304;84;21029;-57
2022/11/12 18:05:19;;;;;;;11.35;6.80;;;;;;;;;;1692515;84;21036;-58
2022/11/12 18:08:04;;;;;;;11.97;6.22;;;;;;;;;;1679436;84;21033;-56
2022/11/12 18:10:49;;;;;;;9.40;6.15;;;;;;;;;;1672842;84;21039;-58
2022/11/12 18:13:34;;;;;;;11.88;6.55;;;;;;;;;;1689933;84;21016;-57
2022/11/12 18:16:24;;;;;;;10.35;6.87;;;;;;;;;;1685458;84;21107;-57
2022/11/12 18:19:10;;;;;;;10.00;6.55;;;;;;;;;;1652611;85;21012;-56
2022/11/12 18:21:55;;;;;;;13.00;6.83;;;;;;;;;;1663032;85;21554;-57
2022/11/12 18:24:40;;;;;;;10.13;6.00;;;;;;;;;;1663753;85;21089;-56
2022/11/12 18:27:25;;;;;;;11.28;6.17;;;;;;;;;;1665983;85;21025;-59
2022/11/12 18:30:11;;;;;;;10.43;6.20;;;;;;;;;;1671630;85;21051;-56
2022/11/12 18:32:55;;;;;;;9.43;5.03;;;;;;;;;;1672155;85;21075;-56
2022/11/12 18:35:39;;;;;;;14.00;6.20;;;;;;;;;;1657269;85;21124;-57
2022/11/12 18:38:24;;;;;;;9.90;5.97;;;;;;;;;;1659334;85;21067;-57
2022/11/12 18:41:12;;;;;;;9.35;5.60;;;;;;;;;;1668441;85;21062;-57
2022/11/12 18:43:57;;;;;;;11.78;6.42;;;;;;;;;;1683555;84;21204;-57
2022/11/12 18:49:49;;;;;;;11.03;6.22;;;;;;;;;;1682355;84;22119;-59
2022/11/12 18:52:36;;;;;;;10.90;6.15;;;;;;;;;;1683711;84;21600;-58
2022/11/12 19:07:29;;;;;;;13.90;7.75;;;;;;;;;;1789928;77;23055;-58
2022/11/12 19:10:14;;;;;;;12.18;7.05;;;;;;;;;;1782084;79;21058;-60
2022/11/12 19:13:02;;;;;;;11.55;7.05;;;;;;;;;;1782598;79;21700;-58
2022/11/12 19:15:45;;;;;;;16.42;9.63;;;;;;;;;;1784174;79;21011;-62
2022/11/12 19:18:30;;;;;;;10.28;6.75;;;;;;;;;;1784414;79;20993;-57
2022/11/12 19:21:16;;;;;;;12.33;7.55;;;;;;;;;;1781984;79;21075;-60
2022/11/12 19:24:01;;;;;;;13.08;7.90;;;;;;;;;;1782122;79;21040;-58
2022/11/12 19:26:46;;;;;;;11.73;7.17;;;;;;;;;;1784000;79;21570;-58
2022/11/12 19:29:32;;;;;;;12.15;7.22;;;;;;;;;;1741442;80;21827;-59
2022/11/12 19:32:17;;;;;;;10.95;6.80;;;;;;;;;;1788229;79;21059;-59
2022/11/12 19:35:04;;;;;;;9.15;6.03;;;;;;;;;;1758618;80;21115;-58
2022/11/12 19:37:49;;;;;;;10.38;6.53;;;;;;;;;;1758471;81;21027;-58
2022/11/12 19:40:34;;;;;;;11.10;6.55;;;;;;;;;;1780430;80;21047;-59
2022/11/12 19:43:21;;;;;;;10.20;6.30;;;;;;;;;;1777400;80;21029;-59
2022/11/12 19:46:06;;;;;;;10.58;6.78;;;;;;;;;;1767053;80;21079;-58
2022/11/12 19:48:50;;;;;;;9.33;5.80;;;;;;;;;;1768035;80;21092;-59
2022/11/12 19:51:35;;;;;;;11.05;6.70;;;;;;;;;;1785790;79;21005;-60
2022/11/12 19:54:19;;;;;;;10.18;6.50;;;;;;;;;;1788574;80;21016;-59
2022/11/12 19:57:04;;;;;;;18.20;10.28;;;;;;;;;;1760092;80;21068;-60
2022/11/12 19:59:49;;;;;;;15.30;9.63;;;;;;;;;;1748337;81;21220;-59
2022/11/12 20:02:34;;;;;;;8.30;5.22;;;;;;;;;;1758088;81;21011;-58
2022/11/12 20:05:19;;;;;;;11.73;7.60;;;;;;;;;;1757021;81;21085;-59
2022/11/12 20:08:03;;;;;;;11.03;7.40;;;;;;;;;;1728047;83;21582;-57
2022/11/12 20:10:48;;;;;;;13.13;8.78;;;;;;;;;;1727513;83;21552;-58
2022/11/12 20:13:33;;;;;;;9.18;5.28;;;;;;;;;;1716715;83;21155;-58
2022/11/12 20:16:19;;;;;;;9.80;5.37;;;;;;;;;;1681301;84;21093;-58
2022/11/12 20:19:04;;;;;;;10.80;5.17;;;;;;;;;;1703587;83;21104;-59
2022/11/12 20:21:49;;;;;;;9.10;5.03;;;;;;;;;;1694388;84;21060;-58
2022/11/12 20:24:33;;;;;;;9.73;5.33;;;;;;;;;;1691472;84;21048;-58
2022/11/12 20:27:18;;;;;;;6.70;4.85;;;;;;;;;;1717628;83;21136;-59
2022/11/12 20:30:03;;;;;;;8.95;5.40;;;;;;;;;;1700867;83;21544;-59
2022/11/12 20:32:48;;;;;;;7.28;4.45;;;;;;;;;;1724181;82;21073;-58
2022/11/12 20:35:36;;;;;;;6.50;4.78;;;;;;;;;;1720170;83;21052;-59
2022/11/12 20:38:21;;;;;;;7.25;4.67;;;;;;;;;;1725407;83;21096;-59
2022/11/12 20:41:06;;;;;;;7.87;4.60;;;;;;;;;;1723228;82;21057;-59
2022/11/12 20:43:55;;;;;;;6.20;3.77;;;;;;;;;;1686530;84;21068;-59
2022/11/12 20:46:41;;;;;;;7.53;5.03;;;;;;;;;;1670719;85;21111;-59
2022/11/12 20:49:25;;;;;;;7.33;5.35;;;;;;;;;;1676334;83;22503;-58
2022/11/12 20:52:10;;;;;;;7.33;5.33;;;;;;;;;;1687302;83;21059;-59
2022/11/12 20:54:54;;;;;;;8.35;4.80;;;;;;;;;;1684893;83;21056;-62
2022/11/12 20:57:39;;;;;;;5.87;3.92;;;;;;;;;;1686518;83;21098;-58
2022/11/12 21:00:23;;;;;;;5.40;3.75;;;;;;;;;;1684981;83;22560;-59
2022/11/12 21:03:08;;;;;;;6.17;3.80;;;;;;;;;;1686413;83;21012;-59
2022/11/12 21:05:58;;;;;;;7.25;4.70;;;;;;;;;;1681013;83;21139;-61
2022/11/12 21:08:44;;;;;;;6.80;3.72;;;;;;;;;;1664176;85;21088;-60
2022/11/12 21:11:29;;;;;;;6.28;4.08;;;;;;;;;;1665782;85;22263;-58
2022/11/12 21:14:15;;;;;;;6.40;4.15;;;;;;;;;;1633338;86;21718;-59
2022/11/12 21:17:00;;;;;;;5.75;4.00;;;;;;;;;;1650349;85;21070;-60